Time;durP1;ratioP1;P1;durP2;ratioP2;P2;SDS_P1;SDS_P2;PMS_P1;PMS_P2;Temp;Humidity;BMP_temperature;BMP_pressure;BME280_temperature;BME280_humidity;BME280_pressure;Samples;Min_cycle;Max_cycle;Signal;HPM_P1;HPM_P2
2022/11/04 00:01:27;;;;;;;;;;;;;;;;;;5095463;28;20043;-65
2022/11/04 00:03:53;;;;;;;44.42;31.27;;;;;;;;;;5094263;28;19959;-67
2022/11/04 00:06:19;;;;;;;;;;;;;;;;;;5095014;28;20039;-66
2022/11/04 00:08:49;;;;;;;47.15;31.10;;;;;;;;;;5094728;28;20273;-66
2022/11/04 00:14:00;;;;;;;46.95;31.17;;;;;;;;;;5094808;28;20159;-66
2022/11/04 00:19:11;;;;;;;40.47;30.67;;;;;;;;;;5094263;28;20047;-66
2022/11/04 00:29:56;;;;;;;37.63;26.27;;;;;;;;;;5094092;28;20044;-66
2022/11/04 00:35:07;;;;;;;35.30;27.80;;;;;;;;;;5094063;28;20051;-67
2022/11/04 00:37:33;;;;;;;;;;;;;;;;;;5094939;28;20102;-68
2022/11/04 00:39:59;;;;;;;26.02;18.58;;;;;;;;;;5093956;28;19915;-65
2022/11/04 00:42:25;;;;;;;26.67;18.55;;;;;;;;;;5093901;28;20036;-66
2022/11/04 00:44:51;;;;;;;25.25;16.25;;;;;;;;;;5093802;28;20043;-67
2022/11/04 00:47:17;;;;;;;20.38;13.32;;;;;;;;;;5094155;28;20056;-66
2022/11/04 00:49:43;;;;;;;14.43;9.70;;;;;;;;;;5093959;28;20052;-67
2022/11/04 00:52:09;;;;;;;12.10;6.55;;;;;;;;;;5093704;28;20070;-65
2022/11/04 00:54:35;;;;;;;12.98;6.78;;;;;;;;;;5093796;28;20074;-64
2022/11/04 00:57:01;;;;;;;11.63;5.72;;;;;;;;;;5093624;28;20048;-63
2022/11/04 00:59:27;;;;;;;9.73;4.45;;;;;;;;;;5093803;28;20086;-66
2022/11/04 01:01:53;;;;;;;9.20;4.20;;;;;;;;;;5093619;28;20036;-64
2022/11/04 01:04:19;;;;;;;10.07;4.50;;;;;;;;;;5093698;28;20097;-64
2022/11/04 01:06:45;;;;;;;11.75;5.13;;;;;;;;;;5093623;28;20177;-65
2022/11/04 01:09:12;;;;;;;10.23;4.80;;;;;;;;;;5094096;28;20040;-65
2022/11/04 01:11:38;;;;;;;13.18;5.72;;;;;;;;;;5093625;28;20039;-64
2022/11/04 01:14:04;;;;;;;11.15;5.30;;;;;;;;;;5094334;28;20044;-64
2022/11/04 01:16:30;;;;;;;13.63;5.20;;;;;;;;;;5091566;28;20428;-68
2022/11/04 01:18:57;;;;;;;24.52;4.07;;;;;;;;;;5089496;28;20076;-66
2022/11/04 01:21:23;;;;;;;;;;;;;;;;;;5088113;28;20058;-68
2022/11/04 01:23:49;;;;;;;10.75;3.80;;;;;;;;;;5089674;28;20332;-66
2022/11/04 01:26:16;;;;;;;12.02;5.32;;;;;;;;;;5089321;28;20044;-67
2022/11/04 01:28:43;;;;;;;10.48;4.03;;;;;;;;;;5089186;28;20044;-68
2022/11/04 01:31:12;;;;;;;11.15;2.90;;;;;;;;;;5088337;28;20051;-68
2022/11/04 01:33:38;;;;;;;9.23;2.72;;;;;;;;;;5093305;28;20144;-68
2022/11/04 01:36:05;;;;;;;8.85;2.40;;;;;;;;;;5091816;28;20044;-69
2022/11/04 01:38:31;;;;;;;6.95;2.10;;;;;;;;;;5093130;28;20117;-69
2022/11/04 01:40:57;;;;;;;6.90;2.20;;;;;;;;;;5093087;28;20032;-68
2022/11/04 01:43:23;;;;;;;;;;;;;;;;;;5093577;28;20106;-71
2022/11/04 01:46:08;;;;;;;8.05;2.33;;;;;;;;;;5093080;28;20315;-71
2022/11/04 01:48:35;;;;;;;6.60;2.00;;;;;;;;;;5091430;28;20044;-70
2022/11/04 01:51:01;;;;;;;6.55;2.00;;;;;;;;;;5092628;28;20459;-70
2022/11/04 01:53:32;;;;;;;8.07;2.05;;;;;;;;;;5092820;28;20059;-69
2022/11/04 01:55:59;;;;;;;10.27;2.35;;;;;;;;;;5092596;28;20047;-70
2022/11/04 01:58:27;;;;;;;6.25;2.13;;;;;;;;;;5092610;28;20043;-71
2022/11/04 02:00:53;;;;;;;10.70;2.35;;;;;;;;;;5092160;28;20141;-69
2022/11/04 02:03:19;;;;;;;;;;;;;;;;;;5093106;28;20063;-70
2022/11/04 02:05:47;;;;;;;10.52;1.90;;;;;;;;;;5092496;28;19938;-67
2022/11/04 02:08:13;;;;;;;8.73;2.28;;;;;;;;;;5092141;28;20389;-70
2022/11/04 02:10:40;;;;;;;7.50;2.00;;;;;;;;;;5090396;28;20372;-67
2022/11/04 02:13:07;;;;;;;9.88;2.05;;;;;;;;;;5092395;28;20147;-65
2022/11/04 02:15:42;;;;;;;7.93;2.20;;;;;;;;;;5090739;28;20470;-69
2022/11/04 02:18:08;;;;;;;7.72;2.10;;;;;;;;;;5092175;28;20115;-69
2022/11/04 02:20:48;;;;;;;15.85;2.55;;;;;;;;;;5090847;28;20095;-67
2022/11/04 02:23:32;;;;;;;8.57;2.00;;;;;;;;;;5092246;28;20051;-69
2022/11/04 02:26:16;;;;;;;13.23;1.90;;;;;;;;;;5092297;28;20040;-68
2022/11/04 02:28:45;;;;;;;10.35;2.55;;;;;;;;;;5092071;28;20043;-69
2022/11/04 02:31:19;;;;;;;13.75;2.25;;;;;;;;;;5091908;28;20362;-68
2022/11/04 02:33:51;;;;;;;10.38;2.10;;;;;;;;;;5091908;28;20119;-67
2022/11/04 02:36:29;;;;;;;9.75;2.00;;;;;;;;;;5091729;28;20142;-67
2022/11/04 02:38:59;;;;;;;11.38;2.58;;;;;;;;;;5091756;28;20132;-67
2022/11/04 02:41:34;;;;;;;14.20;2.05;;;;;;;;;;5091632;28;20036;-68
2022/11/04 02:44:00;;;;;;;10.63;2.00;;;;;;;;;;5090611;28;20052;-68
2022/11/04 02:46:36;;;;;;;8.05;1.80;;;;;;;;;;5091780;28;20052;-67
2022/11/04 02:49:09;;;;;;;9.95;1.98;;;;;;;;;;5091871;28;20047;-67
2022/11/04 02:51:39;;;;;;;8.90;1.92;;;;;;;;;;5090610;28;20340;-67
2022/11/04 02:54:07;;;;;;;14.93;2.13;;;;;;;;;;5091741;28;20127;-68
2022/11/04 02:56:35;;;;;;;10.65;2.33;;;;;;;;;;5091682;28;20115;-73
2022/11/04 02:59:08;;;;;;;21.45;2.83;;;;;;;;;;5091256;28;20394;-70
2022/11/04 03:01:36;;;;;;;11.60;1.90;;;;;;;;;;5091654;28;20079;-73
2022/11/04 03:04:06;;;;;;;15.60;2.47;;;;;;;;;;5091576;28;20044;-71
2022/11/04 03:06:33;;;;;;;14.88;3.08;;;;;;;;;;5091483;28;20060;-70
2022/11/04 03:09:03;;;;;;;11.25;1.90;;;;;;;;;;5091656;28;20040;-73
2022/11/04 03:11:30;;;;;;;13.10;2.22;;;;;;;;;;5091467;28;20440;-71
2022/11/04 03:14:01;;;;;;;13.93;2.25;;;;;;;;;;5091078;28;20389;-74
2022/11/04 03:16:32;;;;;;;11.95;2.30;;;;;;;;;;5091472;28;20043;-72
2022/11/04 03:19:02;;;;;;;13.70;2.17;;;;;;;;;;5091112;28;20116;-72
2022/11/04 03:21:31;;;;;;;11.07;1.98;;;;;;;;;;5091324;28;20044;-73
2022/11/04 03:23:57;;;;;;;11.57;2.42;;;;;;;;;;5091384;28;20112;-73
2022/11/04 03:26:27;;;;;;;10.35;1.90;;;;;;;;;;5091277;28;20130;-71
2022/11/04 03:28:53;;;;;;;9.50;1.98;;;;;;;;;;5091202;28;20048;-73
2022/11/04 03:31:22;;;;;;;12.15;2.30;;;;;;;;;;5090868;28;20042;-71
2022/11/04 03:33:52;;;;;;;14.68;2.38;;;;;;;;;;5091201;28;20055;-73
2022/11/04 03:36:20;;;;;;;12.45;2.00;;;;;;;;;;5090782;28;20075;-73
2022/11/04 03:38:46;;;;;;;14.05;2.47;;;;;;;;;;5090963;28;20147;-73
2022/11/04 03:41:15;;;;;;;13.02;2.38;;;;;;;;;;5088969;28;20115;-71
2022/11/04 03:43:41;;;;;;;13.90;2.33;;;;;;;;;;5090684;28;20040;-74
2022/11/04 03:46:08;;;;;;;11.55;2.28;;;;;;;;;;5090396;28;20055;-73
2022/11/04 03:48:34;;;;;;;;;;;;;;;;;;5091103;28;20173;-74
2022/11/04 03:51:00;;;;;;;13.43;2.75;;;;;;;;;;5090678;28;20053;-68
2022/11/04 03:53:28;;;;;;;13.55;2.75;;;;;;;;;;5090566;28;20074;-70
2022/11/04 03:56:18;;;;;;;13.25;2.42;;;;;;;;;;5090490;28;20400;-78
2022/11/04 03:58:59;;;;;;;11.43;2.33;;;;;;;;;;5090672;28;20055;-70
2022/11/04 04:01:40;;;;;;;12.98;2.30;;;;;;;;;;5090375;28;20505;-72
2022/11/04 04:04:12;;;;;;;15.25;2.50;;;;;;;;;;5090515;28;20099;-73
2022/11/04 04:06:39;;;;;;;15.27;2.88;;;;;;;;;;5090340;28;20048;-70
2022/11/04 04:09:09;;;;;;;13.32;2.33;;;;;;;;;;5090579;28;20055;-71
2022/11/04 04:11:35;;;;;;;12.20;2.50;;;;;;;;;;5090210;28;20344;-68
2022/11/04 04:14:01;;;;;;;13.35;2.60;;;;;;;;;;5090323;28;20039;-67
2022/11/04 04:16:29;;;;;;;15.85;3.20;;;;;;;;;;5090113;28;20043;-67
2022/11/04 04:19:01;;;;;;;19.38;3.42;;;;;;;;;;5090054;28;20096;-73
2022/11/04 04:21:29;;;;;;;12.98;3.10;;;;;;;;;;5089744;28;20152;-68
2022/11/04 04:29:27;;;;;;;19.17;3.53;;;;;;;;;;5089919;28;20109;-79
2022/11/04 04:31:56;;;;;;;17.52;4.75;;;;;;;;;;5088298;28;20044;-69
2022/11/04 04:34:27;;;;;;;16.92;3.67;;;;;;;;;;5088363;28;20044;-68
2022/11/04 04:36:56;;;;;;;18.88;3.85;;;;;;;;;;5089644;28;20148;-70
2022/11/04 04:45:02;;;;;;;10.00;2.42;;;;;;;;;;5088294;28;20051;-74
2022/11/04 04:47:31;;;;;;;13.43;3.53;;;;;;;;;;5089804;28;20138;-71
2022/11/04 04:50:00;;;;;;;11.43;2.53;;;;;;;;;;5091090;28;20040;-78
2022/11/04 04:52:28;;;;;;;10.73;2.50;;;;;;;;;;5088363;28;20123;-80
2022/11/04 04:54:54;;;;;;;11.32;2.50;;;;;;;;;;5089461;28;20075;-73
2022/11/04 04:57:20;;;;;;;8.75;2.55;;;;;;;;;;5088439;28;20142;-82
2022/11/04 04:59:46;;;;;;;15.30;3.20;;;;;;;;;;5089619;28;20054;-77
2022/11/04 05:02:15;;;;;;;10.40;1.95;;;;;;;;;;5089713;28;20032;-81
2022/11/04 05:04:41;;;;;;;8.05;1.92;;;;;;;;;;5088046;28;20063;-78
2022/11/04 05:07:08;;;;;;;8.07;1.98;;;;;;;;;;5087466;28;20048;-78
2022/11/04 05:09:34;;;;;;;8.10;2.40;;;;;;;;;;5087996;28;20116;-68
2022/11/04 05:12:01;;;;;;;7.95;1.90;;;;;;;;;;5089268;28;20451;-74
2022/11/04 05:14:27;;;;;;;7.15;1.92;;;;;;;;;;5087916;28;20032;-74
2022/11/04 05:16:53;;;;;;;6.30;1.80;;;;;;;;;;5088144;28;20126;-73
2022/11/04 05:19:19;;;;;;;11.27;2.05;;;;;;;;;;5087807;28;20464;-77
2022/11/04 05:21:45;;;;;;;10.10;2.25;;;;;;;;;;5089217;28;20067;-75
2022/11/04 05:24:11;;;;;;;8.45;1.90;;;;;;;;;;5089325;28;20130;-74
2022/11/04 05:26:37;;;;;;;12.60;2.35;;;;;;;;;;5089186;28;20043;-76
2022/11/04 05:29:03;;;;;;;8.20;1.95;;;;;;;;;;5089047;28;20070;-80
2022/11/04 05:31:29;;;;;;;10.07;2.42;;;;;;;;;;5089140;28;20142;-72
2022/11/04 05:33:57;;;;;;;8.77;2.33;;;;;;;;;;5087589;28;20067;-72
2022/11/04 05:36:23;;;;;;;12.38;2.55;;;;;;;;;;5087415;28;20126;-79
2022/11/04 05:38:50;;;;;;;12.20;2.35;;;;;;;;;;5089075;28;20044;-74
2022/11/04 05:41:24;;;;;;;11.80;2.30;;;;;;;;;;5088870;28;20036;-74
2022/11/04 05:43:54;;;;;;;11.68;2.20;;;;;;;;;;5089055;28;20324;-74
2022/11/04 05:46:20;;;;;;;10.07;2.30;;;;;;;;;;5087204;28;20197;-72
2022/11/04 05:48:46;;;;;;;;;;;;;;;;;;5088052;28;20154;-72
2022/11/04 05:51:16;;;;;;;11.68;2.28;;;;;;;;;;5088988;28;20019;-69
2022/11/04 05:53:42;;;;;;;10.90;2.67;;;;;;;;;;5089430;28;20402;-70
2022/11/04 05:56:08;;;;;;;13.20;2.42;;;;;;;;;;5088884;28;20044;-70
2022/11/04 05:58:34;;;;;;;6.90;2.13;;;;;;;;;;5089173;28;20044;-72
2022/11/04 06:01:00;;;;;;;;;;;;;;;;;;5089451;28;20228;-72
2022/11/04 06:03:26;;;;;;;7.03;2.10;;;;;;;;;;5089016;28;20092;-72
2022/11/04 06:05:52;;;;;;;12.10;2.22;;;;;;;;;;5087567;28;20048;-71
2022/11/04 06:08:18;;;;;;;11.05;2.38;;;;;;;;;;5088908;28;20131;-71
2022/11/04 06:10:45;;;;;;;7.65;1.90;;;;;;;;;;5087692;28;20119;-73
2022/11/04 06:13:11;;;;;;;6.90;2.03;;;;;;;;;;5070582;28;20147;-71
2022/11/04 06:15:37;;;;;;;12.68;2.28;;;;;;;;;;5087651;28;20452;-70
2022/11/04 06:18:03;;;;;;;13.50;2.55;;;;;;;;;;5089187;28;20111;-72
2022/11/04 06:20:29;;;;;;;10.77;2.42;;;;;;;;;;5091223;28;20435;-73
2022/11/04 06:22:55;;;;;;;12.48;2.65;;;;;;;;;;5092668;28;20036;-77
2022/11/04 06:25:21;;;;;;;10.50;2.25;;;;;;;;;;5091189;28;20072;-76
2022/11/04 06:27:47;;;;;;;12.25;2.45;;;;;;;;;;5092265;28;20040;-75
2022/11/04 06:30:13;;;;;;;9.63;2.13;;;;;;;;;;5091143;28;20063;-76
2022/11/04 06:32:39;;;;;;;9.38;2.17;;;;;;;;;;5090505;28;20050;-75
2022/11/04 06:35:07;;;;;;;13.38;2.83;;;;;;;;;;5091531;28;20044;-76
2022/11/04 06:37:33;;;;;;;10.20;2.33;;;;;;;;;;5091315;28;20409;-73
2022/11/04 06:39:59;;;;;;;14.00;2.72;;;;;;;;;;5090686;28;20036;-75
2022/11/04 06:42:27;;;;;;;11.07;2.30;;;;;;;;;;5089688;28;20072;-71
2022/11/04 06:44:53;;;;;;;11.63;2.70;;;;;;;;;;5090883;28;20486;-75
2022/11/04 06:47:19;;;;;;;12.43;2.75;;;;;;;;;;5089095;28;20526;-71
2022/11/04 06:49:45;;;;;;;12.45;3.53;;;;;;;;;;5089200;28;20044;-72
2022/11/04 06:52:11;;;;;;;11.07;2.85;;;;;;;;;;5090790;28;20070;-72
2022/11/04 06:54:37;;;;;;;13.57;2.88;;;;;;;;;;5090314;28;20451;-74
2022/11/04 06:57:03;;;;;;;14.65;3.70;;;;;;;;;;5055735;28;20549;-76
2022/11/04 06:59:29;;;;;;;12.40;3.55;;;;;;;;;;5072130;28;20055;-77
2022/11/04 07:01:55;;;;;;;15.70;4.00;;;;;;;;;;5090069;28;20123;-77
2022/11/04 07:04:21;;;;;;;14.65;3.58;;;;;;;;;;5088993;28;20051;-79
2022/11/04 07:06:47;;;;;;;18.65;3.95;;;;;;;;;;5090219;28;20424;-76
2022/11/04 07:09:14;;;;;;;17.65;3.67;;;;;;;;;;5090340;28;20133;-76
2022/11/04 07:11:41;;;;;;;15.27;3.90;;;;;;;;;;5090325;28;20036;-76
2022/11/04 07:14:07;;;;;;;14.73;3.55;;;;;;;;;;5088501;28;20375;-78
2022/11/04 07:16:33;;;;;;;;;;;;;;;;;;5090698;28;20104;-76
2022/11/04 07:18:59;;;;;;;15.45;3.60;;;;;;;;;;5071486;28;20011;-77
2022/11/04 07:21:26;;;;;;;15.60;3.65;;;;;;;;;;5089838;28;20052;-81
2022/11/04 07:23:52;;;;;;;15.68;3.65;;;;;;;;;;5088239;28;20038;-81
2022/11/04 07:26:18;;;;;;;12.40;3.63;;;;;;;;;;5088574;28;20043;-81
2022/11/04 07:28:44;;;;;;;13.52;3.70;;;;;;;;;;5089469;28;20043;-79
2022/11/04 07:31:10;;;;;;;;;;;;;;;;;;5088809;28;20130;-80
2022/11/04 07:33:36;;;;;;;16.58;3.67;;;;;;;;;;5089730;28;19985;-74
2022/11/04 07:36:07;;;;;;;13.38;4.05;;;;;;;;;;5088374;28;20036;-75
2022/11/04 07:38:33;;;;;;;13.63;3.10;;;;;;;;;;5090071;28;20054;-71
2022/11/04 07:41:02;;;;;;;13.75;3.50;;;;;;;;;;5089331;28;20051;-75
2022/11/04 07:43:29;;;;;;;10.55;2.85;;;;;;;;;;5088446;28;20043;-75
2022/11/04 07:46:04;;;;;;;12.07;3.45;;;;;;;;;;5087775;28;20040;-75
2022/11/04 07:48:30;;;;;;;14.57;2.97;;;;;;;;;;5088353;28;20135;-76
2022/11/04 07:50:58;;;;;;;15.57;3.45;;;;;;;;;;5089453;28;20047;-82
2022/11/04 07:53:24;;;;;;;15.73;3.40;;;;;;;;;;5088416;28;20048;-80
2022/11/04 07:55:50;;;;;;;17.13;3.90;;;;;;;;;;5088374;28;20066;-79
2022/11/04 07:58:18;;;;;;;11.75;3.92;;;;;;;;;;5071169;28;20066;-79
2022/11/04 08:00:44;;;;;;;12.25;3.72;;;;;;;;;;5089290;28;20110;-80
2022/11/04 08:03:10;;;;;;;16.88;3.85;;;;;;;;;;5071006;28;20067;-76
2022/11/04 08:05:36;;;;;;;14.82;4.13;;;;;;;;;;5122001;27;20144;-77
2022/11/04 08:08:02;;;;;;;16.55;5.10;;;;;;;;;;5089152;28;20040;-79
2022/11/04 08:10:28;;;;;;;17.38;4.28;;;;;;;;;;5088767;28;20325;-77
2022/11/04 08:12:54;;;;;;;14.18;4.40;;;;;;;;;;5070862;28;20054;-71
2022/11/04 08:15:21;;;;;;;13.48;4.53;;;;;;;;;;5089162;28;20455;-72
2022/11/04 08:17:47;;;;;;;10.77;3.83;;;;;;;;;;5088884;28;20375;-67
2022/11/04 08:20:13;;;;;;;16.05;5.50;;;;;;;;;;5089265;28;20044;-70
2022/11/04 08:22:39;;;;;;;10.60;3.20;;;;;;;;;;5089119;28;20070;-69
2022/11/04 08:25:05;;;;;;;12.73;3.25;;;;;;;;;;5089045;28;20169;-68
2022/11/04 08:27:31;;;;;;;;;;;;;;;;;;5089316;28;20107;-70
2022/11/04 08:29:57;;;;;;;10.02;2.92;;;;;;;;;;5088577;28;19932;-68
2022/11/04 08:32:23;;;;;;;17.20;3.38;;;;;;;;;;5087498;28;20043;-70
2022/11/04 08:34:49;;;;;;;13.82;2.90;;;;;;;;;;5088953;28;20100;-69
2022/11/04 08:37:16;;;;;;;12.77;3.42;;;;;;;;;;5088770;28;20329;-69
2022/11/04 08:39:42;;;;;;;11.77;3.53;;;;;;;;;;5088829;28;20441;-69
2022/11/04 08:42:08;;;;;;;12.70;3.25;;;;;;;;;;5087714;28;20083;-69
2022/11/04 08:44:35;;;;;;;;;;;;;;;;;;5088920;28;20185;-69
2022/11/04 08:47:03;;;;;;;13.32;3.00;;;;;;;;;;5088455;28;20023;-70
2022/11/04 08:49:29;;;;;;;12.88;2.95;;;;;;;;;;5088402;28;20079;-69
2022/11/04 08:51:58;;;;;;;11.25;3.13;;;;;;;;;;5087070;28;20071;-69
2022/11/04 08:54:24;;;;;;;11.35;2.85;;;;;;;;;;5088639;28;20381;-68
2022/11/04 08:56:51;;;;;;;14.35;3.60;;;;;;;;;;5088362;28;20058;-70
2022/11/04 08:59:17;;;;;;;9.85;2.30;;;;;;;;;;5088326;28;20040;-69
2022/11/04 09:01:43;;;;;;;16.23;3.35;;;;;;;;;;5088232;28;20040;-66
2022/11/04 09:04:10;;;;;;;10.57;2.63;;;;;;;;;;5086861;28;20044;-68
2022/11/04 09:06:38;;;;;;;11.43;2.53;;;;;;;;;;5088316;28;20078;-68
2022/11/04 09:09:06;;;;;;;12.82;2.60;;;;;;;;;;5088105;28;20360;-66
2022/11/04 09:11:33;;;;;;;10.23;2.83;;;;;;;;;;5087980;28;20032;-69
2022/11/04 09:14:00;;;;;;;9.02;2.47;;;;;;;;;;5088567;28;20387;-67
2022/11/04 09:16:26;;;;;;;11.30;2.65;;;;;;;;;;5088151;28;20135;-66
2022/11/04 09:18:52;;;;;;;;;;;;;;;;;;5087232;28;20044;-68
2022/11/04 09:21:18;;;;;;;10.07;2.50;;;;;;;;;;5088073;28;19939;-67
2022/11/04 09:23:45;;;;;;;10.68;2.85;;;;;;;;;;5086795;28;20089;-68
2022/11/04 09:26:13;;;;;;;13.02;3.60;;;;;;;;;;5087771;28;20056;-69
2022/11/04 09:28:39;;;;;;;12.18;2.60;;;;;;;;;;5086531;28;20130;-67
2022/11/04 09:31:05;;;;;;;;;;;;;;;;;;5088422;28;20051;-68
2022/11/04 09:33:32;;;;;;;10.45;2.40;;;;;;;;;;5088165;28;19923;-68
2022/11/04 09:35:58;;;;;;;;;;;;;;;;;;5089003;28;20128;-68
2022/11/04 09:38:24;;;;;;;15.73;2.85;;;;;;;;;;5088109;28;19951;-66
2022/11/04 09:40:51;;;;;;;11.10;2.67;;;;;;;;;;5086009;28;20050;-67
2022/11/04 09:43:24;;;;;;;13.07;2.88;;;;;;;;;;5087793;28;20063;-65
2022/11/04 09:45:51;;;;;;;12.10;2.70;;;;;;;;;;5087711;28;20377;-67
2022/11/04 09:48:17;;;;;;;;;;;;;;;;;;5088094;28;20146;-67
2022/11/04 09:50:44;;;;;;;11.73;3.00;;;;;;;;;;5087971;28;19967;-66
2022/11/04 09:53:14;;;;;;;11.05;2.92;;;;;;;;;;5090040;28;20135;-67
2022/11/04 09:55:59;;;;;;;12.13;2.88;;;;;;;;;;5091379;28;20071;-67
2022/11/04 09:58:26;;;;;;;17.27;3.03;;;;;;;;;;5091988;28;20079;-68
2022/11/04 10:01:11;;;;;;;9.57;2.55;;;;;;;;;;5089515;28;20437;-67
2022/11/04 10:03:37;;;;;;;13.07;3.08;;;;;;;;;;5091125;28;20402;-67
2022/11/04 10:06:18;;;;;;;14.63;3.97;;;;;;;;;;5091108;28;20036;-67
2022/11/04 10:09:00;;;;;;;10.95;2.80;;;;;;;;;;5091151;28;20097;-67
2022/11/04 10:11:31;;;;;;;11.10;2.63;;;;;;;;;;5091108;28;20122;-66
2022/11/04 10:14:08;;;;;;;12.23;2.75;;;;;;;;;;5091185;28;20040;-67
2022/11/04 10:16:42;;;;;;;13.32;2.85;;;;;;;;;;5091508;28;20048;-65
2022/11/04 10:19:13;;;;;;;13.10;2.83;;;;;;;;;;5091020;28;20047;-66
2022/11/04 10:21:38;;;;;;;12.07;2.78;;;;;;;;;;5090609;28;20438;-67
2022/11/04 10:24:16;;;;;;;12.07;2.38;;;;;;;;;;5091159;28;20140;-67
2022/11/04 10:27:00;;;;;;;10.43;2.58;;;;;;;;;;5090743;28;20360;-66
2022/11/04 10:29:27;;;;;;;10.70;2.33;;;;;;;;;;5091597;28;20040;-66
2022/11/04 10:31:55;;;;;;;13.77;2.30;;;;;;;;;;5091492;28;20336;-67
2022/11/04 10:34:27;;;;;;;13.00;2.65;;;;;;;;;;5090627;28;20185;-68
2022/11/04 10:36:54;;;;;;;9.70;2.40;;;;;;;;;;5090983;28;20044;-68
2022/11/04 10:39:25;;;;;;;11.90;2.72;;;;;;;;;;5091156;28;20039;-67
2022/11/04 10:41:52;;;;;;;14.27;3.10;;;;;;;;;;5090825;28;20070;-66
2022/11/04 10:44:26;;;;;;;14.18;2.83;;;;;;;;;;5089304;28;20475;-66
2022/11/04 10:47:01;;;;;;;13.75;3.20;;;;;;;;;;5090442;28;20133;-66
2022/11/04 10:49:36;;;;;;;12.55;2.70;;;;;;;;;;5090578;28;20371;-67
2022/11/04 10:52:02;;;;;;;12.63;3.22;;;;;;;;;;5090724;28;20066;-66
2022/11/04 10:54:29;;;;;;;;;;;;;;;;;;5090515;28;20086;-68
2022/11/04 10:56:56;;;;;;;11.57;2.85;;;;;;;;;;5090459;28;20027;-66
2022/11/04 10:59:30;;;;;;;13.68;2.60;;;;;;;;;;5089944;28;20044;-68
2022/11/04 11:01:57;;;;;;;15.32;3.35;;;;;;;;;;5090486;28;20040;-68
2022/11/04 11:04:32;;;;;;;11.10;2.53;;;;;;;;;;5089209;28;20044;-65
2022/11/04 11:06:59;;;;;;;10.80;2.45;;;;;;;;;;5090047;28;20055;-67
2022/11/04 11:09:35;;;;;;;12.45;2.85;;;;;;;;;;5089959;28;20050;-66
2022/11/04 11:12:01;;;;;;;14.13;3.47;;;;;;;;;;5088577;28;20040;-65
2022/11/04 11:14:27;;;;;;;13.57;2.70;;;;;;;;;;5090065;28;20176;-67
2022/11/04 11:16:54;;;;;;;13.73;2.63;;;;;;;;;;5090122;28;20056;-67
2022/11/04 11:19:21;;;;;;;11.43;2.38;;;;;;;;;;5089847;28;20143;-66
2022/11/04 11:21:55;;;;;;;9.68;2.53;;;;;;;;;;5088389;28;20382;-66
2022/11/04 11:24:25;;;;;;;11.75;2.85;;;;;;;;;;5090096;28;20087;-67
2022/11/04 11:27:02;;;;;;;15.15;2.63;;;;;;;;;;5090011;28;20167;-67
2022/11/04 11:29:39;;;;;;;10.63;2.60;;;;;;;;;;5090182;28;20184;-66
2022/11/04 11:32:06;;;;;;;15.18;2.95;;;;;;;;;;5090030;28;20043;-66
2022/11/04 11:34:34;;;;;;;12.20;2.42;;;;;;;;;;5089988;28;20044;-67
2022/11/04 11:37:02;;;;;;;11.63;2.95;;;;;;;;;;5090272;28;20362;-68
2022/11/04 11:39:29;;;;;;;17.83;3.63;;;;;;;;;;5089988;28;20063;-65
2022/11/04 11:41:57;;;;;;;13.00;2.90;;;;;;;;;;5089815;28;20123;-67
2022/11/04 11:44:42;;;;;;;14.85;2.92;;;;;;;;;;5089540;28;20051;-68
2022/11/04 11:47:29;;;;;;;11.65;2.80;;;;;;;;;;5089631;28;20478;-69
2022/11/04 11:50:14;;;;;;;18.48;3.40;;;;;;;;;;5085475;28;20079;-66
2022/11/04 11:52:41;;;;;;;18.17;3.13;;;;;;;;;;5090706;28;20351;-69
2022/11/04 11:55:10;;;;;;;13.75;2.70;;;;;;;;;;5090480;28;20428;-72
2022/11/04 11:57:57;;;;;;;11.73;2.50;;;;;;;;;;5089491;28;20504;-71
2022/11/04 12:00:31;;;;;;;12.02;2.80;;;;;;;;;;5089109;28;20097;-67
2022/11/04 12:03:00;;;;;;;10.65;2.67;;;;;;;;;;5087826;28;20066;-68
2022/11/04 12:05:40;;;;;;;13.25;3.03;;;;;;;;;;5088921;28;20457;-68
2022/11/04 12:08:27;;;;;;;11.27;2.50;;;;;;;;;;5089640;28;20082;-67
2022/11/04 12:10:59;;;;;;;13.30;2.45;;;;;;;;;;5088935;28;20069;-67
2022/11/04 12:13:25;;;;;;;10.05;2.20;;;;;;;;;;5089100;28;20337;-66
2022/11/04 12:15:51;;;;;;;13.00;2.47;;;;;;;;;;5089275;28;20448;-68
2022/11/04 12:18:26;;;;;;;8.82;2.55;;;;;;;;;;5089265;28;20054;-69
2022/11/04 12:21:10;;;;;;;11.52;2.88;;;;;;;;;;5089346;28;20083;-69
2022/11/04 12:23:46;;;;;;;16.60;4.68;;;;;;;;;;5089081;28;20095;-68
2022/11/04 12:26:12;;;;;;;13.75;3.88;;;;;;;;;;5088884;28;20131;-69
2022/11/04 12:28:59;;;;;;;15.10;3.70;;;;;;;;;;5088854;28;20048;-69
2022/11/04 12:31:48;;;;;;;10.55;2.58;;;;;;;;;;5088617;28;20036;-69
2022/11/04 12:34:14;;;;;;;7.65;2.40;;;;;;;;;;5085359;28;20088;-68
2022/11/04 12:36:40;;;;;;;12.02;2.55;;;;;;;;;;5088716;28;20119;-68
2022/11/04 12:39:19;;;;;;;8.10;2.63;;;;;;;;;;5089164;28;20040;-68
2022/11/04 12:42:04;;;;;;;12.85;2.90;;;;;;;;;;5088935;28;20040;-68
2022/11/04 12:44:41;;;;;;;13.15;3.30;;;;;;;;;;5088618;28;20107;-67
2022/11/04 12:47:18;;;;;;;14.32;3.40;;;;;;;;;;5089484;28;20389;-68
2022/11/04 12:50:05;;;;;;;12.95;3.42;;;;;;;;;;5087411;28;20071;-67
2022/11/04 12:52:53;;;;;;;13.02;3.67;;;;;;;;;;5088599;28;20347;-67
2022/11/04 12:55:19;;;;;;;13.90;4.53;;;;;;;;;;5086910;28;20040;-69
2022/11/04 12:57:52;;;;;;;13.20;3.65;;;;;;;;;;5088327;28;20075;-66
2022/11/04 13:00:23;;;;;;;12.75;3.35;;;;;;;;;;5088556;28;20124;-67
2022/11/04 13:03:08;;;;;;;12.15;3.13;;;;;;;;;;5088529;28;20092;-66
2022/11/04 13:05:43;;;;;;;13.02;3.30;;;;;;;;;;5089266;28;20078;-68
2022/11/04 13:08:14;;;;;;;17.73;3.75;;;;;;;;;;5088308;28;20387;-67
2022/11/04 13:10:43;;;;;;;13.13;3.28;;;;;;;;;;5088741;28;20066;-67
2022/11/04 13:13:10;;;;;;;15.65;5.03;;;;;;;;;;5088099;28;20482;-66
2022/11/04 13:15:45;;;;;;;16.58;4.05;;;;;;;;;;5088064;28;20052;-72
2022/11/04 13:18:14;;;;;;;12.35;3.60;;;;;;;;;;5087995;28;20156;-69
2022/11/04 13:20:43;;;;;;;15.93;3.53;;;;;;;;;;5086642;28;20123;-68
2022/11/04 13:23:13;;;;;;;18.25;4.78;;;;;;;;;;5087903;28;20095;-68
2022/11/04 13:25:44;;;;;;;14.73;4.22;;;;;;;;;;5086350;28;20363;-69
2022/11/04 13:28:15;;;;;;;14.32;4.78;;;;;;;;;;5090090;28;20078;-69
2022/11/04 13:30:56;;;;;;;15.52;4.65;;;;;;;;;;5091870;28;20120;-68
2022/11/04 13:33:41;;;;;;;16.65;5.03;;;;;;;;;;5091950;28;20040;-66
2022/11/04 13:36:46;;;;;;;14.13;4.43;;;;;;;;;;5090171;28;20040;-67
2022/11/04 13:39:15;;;;;;;17.58;4.13;;;;;;;;;;5068792;28;20119;-69
2022/11/04 13:41:53;;;;;;;14.68;3.33;;;;;;;;;;5068868;28;20511;-74
2022/11/04 13:44:26;;;;;;;14.82;3.20;;;;;;;;;;5081969;28;20056;-68
2022/11/04 13:46:54;;;;;;;17.48;3.35;;;;;;;;;;5091610;28;20147;-67
2022/11/04 13:49:29;;;;;;;16.90;3.00;;;;;;;;;;5091672;28;20063;-69
2022/11/04 13:52:08;;;;;;;12.93;2.85;;;;;;;;;;5091779;28;20036;-69
2022/11/04 13:54:35;;;;;;;13.35;2.67;;;;;;;;;;5091412;28;20105;-69
2022/11/04 13:57:01;;;;;;;;;;;;;;;;;;5090406;28;20048;-68
2022/11/04 13:59:27;;;;;;;15.95;3.33;;;;;;;;;;5091628;28;19969;-66
2022/11/04 14:02:12;;;;;;;15.75;3.45;;;;;;;;;;5091235;28;20036;-67
2022/11/04 14:04:39;;;;;;;18.33;2.97;;;;;;;;;;5091552;28;20063;-68
2022/11/04 14:07:10;;;;;;;15.10;3.00;;;;;;;;;;5091536;28;20040;-66
2022/11/04 14:09:39;;;;;;;15.88;3.15;;;;;;;;;;5091304;28;20104;-64
2022/11/04 14:12:08;;;;;;;15.98;3.28;;;;;;;;;;5091001;28;20325;-67
2022/11/04 14:14:34;;;;;;;18.35;3.45;;;;;;;;;;5091174;28;20044;-69
2022/11/04 14:17:03;;;;;;;17.90;2.60;;;;;;;;;;5090062;28;20381;-67
2022/11/04 14:19:56;;;;;;;16.13;3.03;;;;;;;;;;5091669;28;20120;-68
2022/11/04 14:22:26;;;;;;;15.20;2.88;;;;;;;;;;5090890;28;20040;-68
2022/11/04 14:25:00;;;;;;;13.88;3.22;;;;;;;;;;5091157;28;20036;-68
2022/11/04 14:27:52;;;;;;;18.92;3.50;;;;;;;;;;5090542;28;20047;-69
2022/11/04 14:30:33;;;;;;;18.27;4.20;;;;;;;;;;5089431;28;20074;-68
2022/11/04 14:33:01;;;;;;;17.65;4.10;;;;;;;;;;5090611;28;20079;-68
2022/11/04 14:35:28;;;;;;;17.48;3.92;;;;;;;;;;5090847;28;20071;-68
2022/11/04 14:37:55;;;;;;;23.63;3.60;;;;;;;;;;5090509;28;20078;-67
2022/11/04 14:40:21;;;;;;;;;;;;;;;;;;5089849;28;20090;-68
2022/11/04 14:42:51;;;;;;;21.08;4.00;;;;;;;;;;5090367;28;19997;-68
2022/11/04 14:45:20;;;;;;;22.15;3.97;;;;;;;;;;5090740;28;20036;-67
2022/11/04 14:47:48;;;;;;;16.25;3.50;;;;;;;;;;5088423;28;20044;-68
2022/11/04 14:50:17;;;;;;;17.90;3.45;;;;;;;;;;5090389;28;20091;-68
2022/11/04 14:52:43;;;;;;;15.95;3.28;;;;;;;;;;5090216;28;20133;-69
2022/11/04 14:55:16;;;;;;;21.95;3.35;;;;;;;;;;5090175;28;20448;-68
2022/11/04 14:58:05;;;;;;;20.73;3.22;;;;;;;;;;5090655;28;20094;-68
2022/11/04 15:00:50;;;;;;;19.23;3.80;;;;;;;;;;5086756;28;20063;-68
2022/11/04 15:03:22;;;;;;;15.57;3.83;;;;;;;;;;5090085;28;20066;-68
2022/11/04 15:05:50;;;;;;;22.23;3.47;;;;;;;;;;5090093;28;20058;-69
2022/11/04 15:08:31;;;;;;;18.38;3.13;;;;;;;;;;5090115;28;20047;-68
2022/11/04 15:11:02;;;;;;;18.90;3.65;;;;;;;;;;5090132;28;20101;-68
2022/11/04 15:13:28;;;;;;;20.27;3.40;;;;;;;;;;5090185;28;20073;-69
2022/11/04 15:15:57;;;;;;;22.05;8.52;;;;;;;;;;5089758;28;20070;-69
2022/11/04 15:18:25;;;;;;;26.60;4.38;;;;;;;;;;5090012;28;20039;-68
2022/11/04 15:20:54;;;;;;;17.63;3.53;;;;;;;;;;5089471;28;20043;-69